createdAt,value
2022-09-18T00:01:40.401Z,42.10
2022-09-18T00:04:09.894Z,42.00
2022-09-18T00:06:39.786Z,42.00
2022-09-18T00:09:10.784Z,42.00
2022-09-18T00:11:41.375Z,42.00
2022-09-18T00:14:13.594Z,42.00
2022-09-18T00:16:42.409Z,42.00
2022-09-18T00:19:11.287Z,42.10
2022-09-18T00:21:42.204Z,42.10
2022-09-18T00:24:10.311Z,42.10
2022-09-18T00:26:38.773Z,42.70
2022-09-18T00:29:07.353Z,42.10
2022-09-18T00:31:37.429Z,42.10
2022-09-18T00:34:08.598Z,42.10
2022-09-18T00:36:38.365Z,42.10
2022-09-18T00:39:06.996Z,42.00
2022-09-18T00:41:37.600Z,42.00
2022-09-18T00:44:39.992Z,42.00
2022-09-18T00:47:23.657Z,42.10
2022-09-18T00:49:57.823Z,41.80
2022-09-18T00:52:30.300Z,42.50
2022-09-18T00:55:03.328Z,42.50
2022-09-18T00:57:34.025Z,43.30
2022-09-18T01:00:03.832Z,43.40
2022-09-18T01:02:33.374Z,43.50
2022-09-18T01:05:01.631Z,43.60
2022-09-18T01:07:40.104Z,43.60
2022-09-18T01:10:22.909Z,43.70
2022-09-18T01:12:56.140Z,43.70
2022-09-18T01:15:31.805Z,43.90
2022-09-18T01:18:12.015Z,43.90
2022-09-18T01:21:08.984Z,43.90
2022-09-18T01:24:07.640Z,43.90
2022-09-18T01:26:49.024Z,43.90
2022-09-18T01:29:24.656Z,44.00
2022-09-18T01:31:57.399Z,44.00
2022-09-18T01:34:31.379Z,44.10
2022-09-18T01:37:05.548Z,43.90
2022-09-18T01:39:38.683Z,44.10
2022-09-18T01:42:10.667Z,44.10
2022-09-18T01:44:43.921Z,44.10
2022-09-18T01:47:14.923Z,44.10
2022-09-18T01:49:46.717Z,44.10
2022-09-18T01:52:20.930Z,44.10
2022-09-18T01:54:52.137Z,44.10
2022-09-18T01:57:24.164Z,44.10
2022-09-18T01:59:58.586Z,44.00
2022-09-18T02:02:32.511Z,44.10
2022-09-18T02:05:03.619Z,44.10
2022-09-18T02:07:38.478Z,44.10
2022-09-18T02:10:08.288Z,44.20
2022-09-18T02:12:40.352Z,44.10
2022-09-18T02:15:14.504Z,44.10
2022-09-18T02:17:47.659Z,44.10
2022-09-18T02:20:20.770Z,44.10
2022-09-18T02:22:52.520Z,44.20
2022-09-18T02:25:25.318Z,44.20
2022-09-18T02:27:55.895Z,44.20
2022-09-18T02:30:26.330Z,44.20
2022-09-18T02:32:56.094Z,44.10
2022-09-18T02:35:30.779Z,44.10
2022-09-18T02:38:05.653Z,44.70
2022-09-18T02:40:43.411Z,44.10
2022-09-18T02:43:22.428Z,44.10
2022-09-18T02:46:02.245Z,44.10
2022-09-18T02:48:53.387Z,44.10
2022-09-18T02:51:30.536Z,44.10
2022-09-18T02:54:03.814Z,44.10
2022-09-18T02:56:39.441Z,44.10
2022-09-18T02:59:13.230Z,44.10
2022-09-18T03:01:45.153Z,44.10
2022-09-18T03:04:15.957Z,44.10
2022-09-18T03:06:44.093Z,44.20
2022-09-18T03:09:12.192Z,44.10
2022-09-18T03:11:40.253Z,44.10
2022-09-18T03:14:08.711Z,44.10
2022-09-18T03:16:36.955Z,44.10
2022-09-18T03:19:06.637Z,44.20
2022-09-18T03:21:35.168Z,44.10
2022-09-18T03:24:03.719Z,44.20
2022-09-18T03:26:31.878Z,44.20
2022-09-18T03:29:00.206Z,44.20
2022-09-18T03:31:29.451Z,44.10
2022-09-18T03:33:57.736Z,44.20
2022-09-18T03:36:27.240Z,44.20
2022-09-18T03:38:55.345Z,44.10
2022-09-18T03:41:24.141Z,44.20
2022-09-18T03:43:52.660Z,44.20
2022-09-18T03:46:23.578Z,44.20
2022-09-18T03:48:52.332Z,44.20
2022-09-18T03:51:21.085Z,44.20
2022-09-18T03:53:51.248Z,44.20
2022-09-18T03:56:19.439Z,44.30
2022-09-18T03:58:47.617Z,44.30
2022-09-18T04:01:15.756Z,44.20
2022-09-18T04:03:43.885Z,44.40
2022-09-18T04:06:12.202Z,44.30
2022-09-18T04:08:40.435Z,44.30
2022-09-18T04:11:09.932Z,44.30
2022-09-18T04:13:38.022Z,44.40
2022-09-18T04:16:06.491Z,44.40
2022-09-18T04:18:34.616Z,44.40
2022-09-18T04:21:02.804Z,44.40
2022-09-18T04:23:30.939Z,44.40
2022-09-18T04:25:59.051Z,44.50
2022-09-18T04:28:28.527Z,44.40
2022-09-18T04:30:56.749Z,45.10
2022-09-18T04:33:26.024Z,44.50
2022-09-18T04:35:54.147Z,44.60
2022-09-18T04:38:27.413Z,44.60
2022-09-18T04:40:57.340Z,44.60
2022-09-18T04:43:25.635Z,44.60
2022-09-18T04:45:55.271Z,44.60
2022-09-18T04:48:24.265Z,44.60
2022-09-18T04:50:52.962Z,44.60
2022-09-18T04:53:21.188Z,44.60
2022-09-18T04:55:49.703Z,44.60
2022-09-18T04:58:18.681Z,44.70
2022-09-18T05:00:49.018Z,44.70
2022-09-18T05:03:19.471Z,44.70
2022-09-18T05:05:48.375Z,46.20
2022-09-18T05:08:16.467Z,47.10
2022-09-18T05:10:45.005Z,46.60
2022-09-18T05:13:13.116Z,47.10
2022-09-18T05:15:41.379Z,46.90
2022-09-18T05:18:11.731Z,47.10
2022-09-18T05:20:42.270Z,47.30
2022-09-18T05:23:10.359Z,47.40
2022-09-18T05:25:38.467Z,47.70
2022-09-18T05:28:06.887Z,47.70
2022-09-18T05:30:35.096Z,47.50
2022-09-18T05:33:04.835Z,47.70
2022-09-18T05:35:34.454Z,47.80
2022-09-18T05:38:05.118Z,47.80
2022-09-18T05:40:35.334Z,48.00
2022-09-18T05:43:03.929Z,47.80
2022-09-18T05:45:32.456Z,47.80
2022-09-18T05:48:01.999Z,47.90
2022-09-18T05:50:31.124Z,47.90
2022-09-18T05:53:01.326Z,47.90
2022-09-18T05:55:32.083Z,47.80
2022-09-18T05:58:02.006Z,47.80
2022-09-18T06:00:31.939Z,47.70
2022-09-18T06:03:00.588Z,47.70
2022-09-18T06:05:30.532Z,47.60
2022-09-18T06:07:59.874Z,47.60
2022-09-18T06:10:29.374Z,47.60
2022-09-18T06:13:03.072Z,47.60
2022-09-18T06:15:31.474Z,47.60
2022-09-18T06:17:59.657Z,47.50
2022-09-18T06:20:28.454Z,47.50
2022-09-18T06:23:00.845Z,47.50
2022-09-18T06:25:29.593Z,47.50
2022-09-18T06:27:58.852Z,47.40
2022-09-18T06:30:29.852Z,47.40
2022-09-18T06:33:01.751Z,47.30
2022-09-18T06:35:30.056Z,47.30
2022-09-18T06:38:03.101Z,47.20
2022-09-18T06:40:31.688Z,47.30
2022-09-18T06:43:01.688Z,47.20
2022-09-18T06:45:32.017Z,47.10
2022-09-18T06:48:02.828Z,47.10
2022-09-18T06:50:31.009Z,47.00
2022-09-18T06:53:02.919Z,46.90
2022-09-18T06:55:31.812Z,46.80
2022-09-18T06:58:00.582Z,46.80
2022-09-18T07:00:29.379Z,46.80
2022-09-18T07:03:00.108Z,46.70
2022-09-18T07:05:29.691Z,46.60
2022-09-18T07:07:57.803Z,46.60
2022-09-18T07:10:26.605Z,46.50
2022-09-18T07:12:57.517Z,46.40
2022-09-18T07:15:26.707Z,46.40
2022-09-18T07:17:59.190Z,46.20
2022-09-18T07:20:27.900Z,46.20
2022-09-18T07:22:57.395Z,46.20
2022-09-18T07:25:26.275Z,46.10
2022-09-18T07:27:54.593Z,46.20
2022-09-18T07:30:22.828Z,46.40
2022-09-18T07:32:50.926Z,46.30
2022-09-18T07:35:20.524Z,46.30
2022-09-18T07:37:48.583Z,46.20
2022-09-18T07:40:16.938Z,46.20
2022-09-18T07:42:45.144Z,46.00
2022-09-18T07:45:13.289Z,45.80
2022-09-18T07:47:41.789Z,45.80
2022-09-18T07:50:15.825Z,45.60
2022-09-18T07:52:52.114Z,45.60
2022-09-18T07:55:21.252Z,45.70
2022-09-18T07:57:49.828Z,45.70
2022-09-18T08:00:18.115Z,45.60
2022-09-18T08:02:46.506Z,45.60
2022-09-18T08:05:14.912Z,45.60
2022-09-18T08:07:43.036Z,45.60
2022-09-18T08:10:12.812Z,45.50
2022-09-18T08:12:40.903Z,45.50
2022-09-18T08:15:10.029Z,45.30
2022-09-18T08:17:45.687Z,45.30
2022-09-18T08:20:14.160Z,45.20
2022-09-18T08:22:42.830Z,45.10
2022-09-18T08:25:12.395Z,45.10
2022-09-18T08:27:41.913Z,45.10
2022-09-18T08:30:13.227Z,45.10
2022-09-18T08:32:41.652Z,45.10
2022-09-18T08:35:11.026Z,45.20
2022-09-18T08:37:39.166Z,45.00
2022-09-18T08:40:09.065Z,44.80
2022-09-18T08:42:40.896Z,44.90
2022-09-18T08:45:30.511Z,45.10
2022-09-18T08:48:02.247Z,45.40
2022-09-18T08:50:37.692Z,45.50
2022-09-18T08:53:14.698Z,45.70
2022-09-18T08:55:45.711Z,46.00
2022-09-18T08:58:18.448Z,46.20
2022-09-18T09:00:49.333Z,46.50
2022-09-18T09:03:27.360Z,47.40
2022-09-18T09:06:00.271Z,47.20
2022-09-18T09:08:42.844Z,46.70
2022-09-18T09:11:18.097Z,46.70
2022-09-18T09:14:03.289Z,46.70
2022-09-18T09:16:42.706Z,46.80
2022-09-18T09:19:27.115Z,47.00
2022-09-18T09:22:03.740Z,47.10
2022-09-18T09:24:35.683Z,47.10
2022-09-18T09:27:14.845Z,47.20
2022-09-18T09:29:47.261Z,47.60
2022-09-18T09:32:29.568Z,47.80
2022-09-18T09:35:10.841Z,48.20
2022-09-18T09:37:44.820Z,48.30
2022-09-18T09:40:19.304Z,48.40
2022-09-18T09:42:54.369Z,48.60
2022-09-18T09:45:32.108Z,48.70
2022-09-18T09:48:06.556Z,49.00
2022-09-18T09:50:44.746Z,49.00
2022-09-18T09:53:14.456Z,48.90
2022-09-18T09:55:53.299Z,48.80
2022-09-18T09:58:35.890Z,48.80
2022-09-18T10:01:12.073Z,49.00
2022-09-18T10:03:55.220Z,49.10
2022-09-18T10:06:36.743Z,49.10
2022-09-18T10:09:13.673Z,48.80
2022-09-18T10:11:44.196Z,49.20
2022-09-18T10:14:18.195Z,49.30
2022-09-18T10:16:50.858Z,49.50
2022-09-18T10:19:21.005Z,49.40
2022-09-18T10:21:50.689Z,49.40
2022-09-18T10:24:26.873Z,49.20
2022-09-18T10:26:58.293Z,49.10
2022-09-18T10:29:26.738Z,49.00
2022-09-18T10:31:58.105Z,49.00
2022-09-18T10:34:41.255Z,49.60
2022-09-18T10:37:16.541Z,49.70
2022-09-18T10:39:52.777Z,49.50
2022-09-18T10:42:24.448Z,49.30
2022-09-18T10:44:57.837Z,49.00
2022-09-18T10:47:32.444Z,48.90
2022-09-18T10:50:06.335Z,48.70
2022-09-18T10:52:36.223Z,48.70
2022-09-18T10:55:13.730Z,48.40
2022-09-18T10:57:44.637Z,48.40
2022-09-18T11:00:37.318Z,48.40
2022-09-18T11:03:23.579Z,48.60
2022-09-18T11:05:54.566Z,49.00
2022-09-18T11:08:27.241Z,49.10
2022-09-18T11:11:02.231Z,49.10
2022-09-18T11:13:31.394Z,49.10
2022-09-18T11:16:02.313Z,49.00
2022-09-18T11:18:33.844Z,49.00
2022-09-18T11:21:05.411Z,48.90
2022-09-18T11:23:35.436Z,49.40
2022-09-18T11:26:13.033Z,49.30
2022-09-18T11:28:41.672Z,49.20
2022-09-18T11:31:16.259Z,49.30
2022-09-18T11:33:49.509Z,49.30
2022-09-18T11:36:25.621Z,49.30
2022-09-18T11:38:53.984Z,49.00
2022-09-18T11:41:30.452Z,48.60
2022-09-18T11:44:03.239Z,48.10
2022-09-18T11:46:41.393Z,48.50
2022-09-18T11:49:15.561Z,48.80
2022-09-18T11:51:49.126Z,49.10
2022-09-18T11:54:27.572Z,49.60
2022-09-18T11:57:00.709Z,49.50
2022-09-18T11:59:32.656Z,50.00
2022-09-18T12:02:06.094Z,50.10
2022-09-18T12:04:44.856Z,50.00
2022-09-18T12:07:38.060Z,50.00
2022-09-18T12:10:16.297Z,50.10
2022-09-18T12:12:48.961Z,50.00
2022-09-18T12:15:19.767Z,50.10
2022-09-18T12:17:52.963Z,50.10
2022-09-18T12:20:26.937Z,50.00
2022-09-18T12:22:56.723Z,50.00
2022-09-18T12:25:38.575Z,49.90
2022-09-18T12:28:14.423Z,49.70
2022-09-18T12:30:50.252Z,49.60
2022-09-18T12:33:33.913Z,49.70
2022-09-18T12:36:15.805Z,49.70
2022-09-18T12:38:59.322Z,49.70
2022-09-18T12:41:39.667Z,49.80
2022-09-18T12:44:33.879Z,49.90
2022-09-18T12:47:21.730Z,50.20
2022-09-18T12:50:04.887Z,50.40
2022-09-18T12:53:06.533Z,50.50
2022-09-18T12:55:59.170Z,50.70
2022-09-18T12:58:48.515Z,50.80
2022-09-18T13:01:34.109Z,50.90
2022-09-18T13:04:18.770Z,51.00
2022-09-18T13:06:51.975Z,51.10
2022-09-18T13:09:26.903Z,51.20
2022-09-18T13:11:59.840Z,51.00
2022-09-18T13:14:34.268Z,51.00
2022-09-18T13:17:09.092Z,50.90
2022-09-18T13:19:42.191Z,50.90
2022-09-18T13:22:16.338Z,50.90
2022-09-18T13:24:49.606Z,51.10
2022-09-18T13:27:19.693Z,51.80
2022-09-18T13:29:59.167Z,52.00
2022-09-18T13:32:40.030Z,52.00
2022-09-18T13:35:20.604Z,51.80
2022-09-18T13:37:49.400Z,51.90
2022-09-18T13:40:35.437Z,51.80
2022-09-18T13:43:31.881Z,51.70
2022-09-18T13:46:05.992Z,51.70
2022-09-18T13:48:37.266Z,51.50
2022-09-18T13:51:07.175Z,51.40
2022-09-18T13:53:39.977Z,51.20
2022-09-18T13:56:11.460Z,51.20
2022-09-18T13:58:54.499Z,51.10
2022-09-18T14:02:00.400Z,50.90
2022-09-18T14:04:51.035Z,50.70
2022-09-18T14:07:57.463Z,50.50
2022-09-18T14:10:30.570Z,50.40
2022-09-18T14:13:30.002Z,50.20
2022-09-18T14:16:07.048Z,50.00
2022-09-18T14:18:39.582Z,49.50
2022-09-18T14:21:21.231Z,49.60
2022-09-18T14:24:23.193Z,49.60
2022-09-18T14:27:03.544Z,49.70
2022-09-18T14:29:34.892Z,49.70
2022-09-18T14:32:03.968Z,49.70
2022-09-18T14:34:38.133Z,49.60
2022-09-18T14:37:25.891Z,49.60
2022-09-18T14:39:55.514Z,49.70
2022-09-18T14:42:32.831Z,49.60
2022-09-18T14:45:21.763Z,49.80
2022-09-18T14:47:50.676Z,48.90
2022-09-18T14:50:27.957Z,47.10
2022-09-18T14:52:57.323Z,47.80
2022-09-18T14:55:30.158Z,48.30
2022-09-18T14:58:02.763Z,48.30
2022-09-18T15:00:34.968Z,48.40
2022-09-18T15:03:07.018Z,48.40
2022-09-18T15:05:35.776Z,48.60
2022-09-18T15:08:05.747Z,48.60
2022-09-18T15:10:35.393Z,48.60
2022-09-18T15:13:06.702Z,48.60
2022-09-18T15:15:38.291Z,48.50
2022-09-18T15:18:19.763Z,48.50
2022-09-18T15:20:51.619Z,48.50
2022-09-18T15:23:21.883Z,48.60
2022-09-18T15:25:52.883Z,48.60
2022-09-18T15:28:22.233Z,48.60
2022-09-18T15:30:57.317Z,48.60
2022-09-18T15:33:27.461Z,48.60
2022-09-18T15:35:56.906Z,48.60
2022-09-18T15:38:27.183Z,48.60
2022-09-18T15:40:55.688Z,48.60
2022-09-18T15:43:43.495Z,48.70
2022-09-18T15:46:24.787Z,48.80
2022-09-18T15:48:56.277Z,48.50
2022-09-18T15:51:25.907Z,48.60
2022-09-18T15:54:09.639Z,48.60
2022-09-18T15:56:40.106Z,48.60
2022-09-18T15:59:17.976Z,48.60
2022-09-18T16:01:49.513Z,48.50
2022-09-18T16:04:20.381Z,48.70
2022-09-18T16:06:57.377Z,48.70
2022-09-18T16:09:38.663Z,48.80
2022-09-18T16:12:26.112Z,48.80
2022-09-18T16:15:21.800Z,48.80
2022-09-18T16:18:24.966Z,48.80
2022-09-18T16:21:04.368Z,48.80
2022-09-18T16:23:34.482Z,49.00
2022-09-18T16:26:11.582Z,49.00
2022-09-18T16:28:43.818Z,49.00
2022-09-18T16:31:13.502Z,49.10
2022-09-18T16:33:51.751Z,48.60
2022-09-18T16:36:30.391Z,47.80
2022-09-18T16:39:01.472Z,47.90
2022-09-18T16:41:30.322Z,48.40
2022-09-18T16:43:58.517Z,48.70
2022-09-18T16:46:33.635Z,48.90
2022-09-18T16:49:03.220Z,48.90
2022-09-18T16:51:31.263Z,49.00
2022-09-18T16:53:59.336Z,49.00
2022-09-18T16:56:31.254Z,48.90
2022-09-18T16:59:01.594Z,48.90
2022-09-18T17:01:39.619Z,48.90
2022-09-18T17:04:22.055Z,48.90
2022-09-18T17:06:50.396Z,49.00
2022-09-18T17:09:18.498Z,48.90
2022-09-18T17:11:46.909Z,48.90
2022-09-18T17:14:14.993Z,49.00
2022-09-18T17:16:44.980Z,49.00
2022-09-18T17:19:13.527Z,49.00
2022-09-18T17:21:43.271Z,49.00
2022-09-18T17:24:11.825Z,49.00
2022-09-18T17:26:41.582Z,49.00
2022-09-18T17:29:11.296Z,49.10
2022-09-18T17:31:40.730Z,49.10
2022-09-18T17:34:08.922Z,49.10
2022-09-18T17:36:40.168Z,49.10
2022-09-18T17:39:10.414Z,49.00
2022-09-18T17:41:38.960Z,49.10
2022-09-18T17:44:07.326Z,48.10
2022-09-18T17:46:35.412Z,49.00
2022-09-18T17:49:03.558Z,49.10
2022-09-18T17:51:31.621Z,49.70
2022-09-18T17:54:02.729Z,49.80
2022-09-18T17:56:33.877Z,50.00
2022-09-18T17:59:05.515Z,50.00
2022-09-18T18:01:36.498Z,50.00
2022-09-18T18:04:05.326Z,50.20
2022-09-18T18:06:33.764Z,49.90
2022-09-18T18:09:02.008Z,47.90
2022-09-18T18:11:31.480Z,47.30
2022-09-18T18:14:00.312Z,47.40
2022-09-18T18:16:31.119Z,48.00
2022-09-18T18:19:01.184Z,48.50
2022-09-18T18:21:30.124Z,48.90
2022-09-18T18:23:59.138Z,49.30
2022-09-18T18:26:29.020Z,49.30
2022-09-18T18:28:58.726Z,49.50
2022-09-18T18:31:27.282Z,51.00
2022-09-18T18:33:56.901Z,52.40
2022-09-18T18:36:26.759Z,58.80
2022-09-18T18:38:56.950Z,61.50
2022-09-18T18:41:28.003Z,63.20
2022-09-18T18:43:59.443Z,64.70
2022-09-18T18:46:29.744Z,66.10
2022-09-18T18:49:00.474Z,67.50
2022-09-18T18:51:29.877Z,68.90
2022-09-18T18:54:00.245Z,70.20
2022-09-18T18:56:28.321Z,71.30
2022-09-18T18:59:00.484Z,72.40
2022-09-18T19:01:30.116Z,73.70
2022-09-18T19:04:00.294Z,74.70
2022-09-18T19:06:29.711Z,75.90
2022-09-18T19:08:58.597Z,76.60
2022-09-18T19:11:28.792Z,77.60
2022-09-18T19:14:00.132Z,78.80
2022-09-18T19:16:29.345Z,80.00
2022-09-18T19:18:59.869Z,80.90
2022-09-18T19:21:28.652Z,81.90
2022-09-18T19:23:59.288Z,79.80
2022-09-18T19:26:29.183Z,77.20
2022-09-18T19:29:00.307Z,75.70
2022-09-18T19:31:30.404Z,74.50
2022-09-18T19:33:58.560Z,73.60
2022-09-18T19:36:29.090Z,72.80
2022-09-18T19:38:58.907Z,67.20
2022-09-18T19:41:33.961Z,61.00
2022-09-18T19:44:05.643Z,59.00
2022-09-18T19:46:34.082Z,58.40
2022-09-18T19:49:02.428Z,57.60
2022-09-18T19:51:31.300Z,56.20
2022-09-18T19:53:59.370Z,56.80
2022-09-18T19:56:42.641Z,55.60
2022-09-18T19:59:13.736Z,55.80
2022-09-18T20:01:42.010Z,56.40
2022-09-18T20:04:10.403Z,56.50
2022-09-18T20:06:40.495Z,61.50
2022-09-18T20:09:09.054Z,62.00
2022-09-18T20:11:37.316Z,60.70
2022-09-18T20:14:05.883Z,60.10
2022-09-18T20:16:35.396Z,59.80
2022-09-18T20:19:03.590Z,59.40
2022-09-18T20:21:31.746Z,59.10
2022-09-18T20:24:00.125Z,59.10
2022-09-18T20:26:28.888Z,59.10
2022-09-18T20:28:57.214Z,59.30
2022-09-18T20:31:25.569Z,59.20
2022-09-18T20:33:58.658Z,59.10
2022-09-18T20:36:27.309Z,58.20
2022-09-18T20:39:00.681Z,59.00
2022-09-18T20:41:29.910Z,58.10
2022-09-18T20:44:01.077Z,58.40
2022-09-18T20:46:29.320Z,58.30
2022-09-18T20:49:01.240Z,58.40
2022-09-18T20:51:34.712Z,58.10
2022-09-18T20:54:04.340Z,58.10
2022-09-18T20:56:34.527Z,58.20
2022-09-18T20:59:04.990Z,58.20
2022-09-18T21:01:37.836Z,58.10
2022-09-18T21:04:08.999Z,58.00
2022-09-18T21:06:38.317Z,57.90
2022-09-18T21:09:09.240Z,57.90
2022-09-18T21:11:39.450Z,57.90
2022-09-18T21:14:09.027Z,57.70
2022-09-18T21:16:40.473Z,57.70
2022-09-18T21:19:11.744Z,57.70
2022-09-18T21:21:40.155Z,57.60
2022-09-18T21:24:08.874Z,57.50
2022-09-18T21:26:38.723Z,57.60
2022-09-18T21:29:08.412Z,57.60
2022-09-18T21:31:38.478Z,57.60
2022-09-18T21:34:07.208Z,57.60
2022-09-18T21:36:38.606Z,58.00
2022-09-18T21:39:07.622Z,57.20
2022-09-18T21:41:39.391Z,57.20
2022-09-18T21:44:08.931Z,57.40
2022-09-18T21:46:39.763Z,57.30
2022-09-18T21:49:09.416Z,57.10
2022-09-18T21:51:41.353Z,57.20
2022-09-18T21:54:14.656Z,57.20
2022-09-18T21:56:43.107Z,57.20
2022-09-18T21:59:11.854Z,57.20
2022-09-18T22:01:41.772Z,57.10
2022-09-18T22:04:10.452Z,57.10
2022-09-18T22:06:42.410Z,57.00
2022-09-18T22:09:12.542Z,57.50
2022-09-18T22:11:41.745Z,56.90
2022-09-18T22:14:12.406Z,57.00
2022-09-18T22:16:40.787Z,56.90
2022-09-18T22:19:09.342Z,56.80
2022-09-18T22:21:40.727Z,56.80
2022-09-18T22:24:10.813Z,56.80
2022-09-18T22:26:39.876Z,56.80
2022-09-18T22:29:09.462Z,56.80
2022-09-18T22:31:39.131Z,56.60
2022-09-18T22:34:07.346Z,56.60
2022-09-18T22:36:35.496Z,56.70
2022-09-18T22:39:05.070Z,56.70
2022-09-18T22:41:33.136Z,56.60
2022-09-18T22:44:01.224Z,56.60
2022-09-18T22:46:29.298Z,56.30
2022-09-18T22:48:57.397Z,56.50
2022-09-18T22:51:27.574Z,56.50
2022-09-18T22:53:59.224Z,56.40
2022-09-18T22:56:29.828Z,56.40
2022-09-18T22:59:02.151Z,56.30
2022-09-18T23:01:33.192Z,56.40
2022-09-18T23:04:03.729Z,56.40
2022-09-18T23:06:34.077Z,56.30
2022-09-18T23:09:03.644Z,56.20
2022-09-18T23:11:34.865Z,56.30
2022-09-18T23:14:05.442Z,56.80
2022-09-18T23:16:36.230Z,58.00
2022-09-18T23:19:06.731Z,56.90
2022-09-18T23:21:36.218Z,57.30
2022-09-18T23:24:08.858Z,57.30
2022-09-18T23:26:40.964Z,57.30
2022-09-18T23:29:12.766Z,57.40
2022-09-18T23:31:42.959Z,57.50
2022-09-18T23:34:15.187Z,57.70
2022-09-18T23:36:45.234Z,57.70
2022-09-18T23:39:14.262Z,57.80
2022-09-18T23:41:44.084Z,57.80
2022-09-18T23:44:14.547Z,57.90
2022-09-18T23:46:43.129Z,57.90
2022-09-18T23:49:12.321Z,58.00
2022-09-18T23:51:42.351Z,58.00
2022-09-18T23:54:14.928Z,58.00
2022-09-18T23:56:45.211Z,58.00
2022-09-18T23:59:14.732Z,58.00
